Saturday, November 17, 2018, 10:55 AM EST
Back to Local

KCXY, Harrisburg Capital City

Location: New Cumberland, PA, United States Lat: 40.217
Local Time: 10:55 AM EST (15:55 GMT) Lon: -76.85
Time Zone: US/Eastern Elev: 347 ft

Show me the last for .
Show Decoded

2018-11-17 09:56 METAR KCXY 171456Z 29011G17KT 10SM OVC042 07/M02 A3023 RMK AO2 SLP241 T00671022
                 53009 =
2018-11-17 08:56 METAR KCXY 171356Z 25008KT 10SM SCT043 06/M01 A3022 RMK AO2 SLP236 T00561011 =
2018-11-17 07:56 METAR KCXY 171256Z 25008KT 10SM OVC040 04/M01 A3021 RMK AO2 SLP234 T00441011 =
2018-11-17 06:56 METAR KCXY 171156Z 28009KT 10SM OVC037 04/M01 A3020 RMK AO2 SLP231 T00441011
                 10044 20039 51023 =
2018-11-17 05:56 METAR KCXY 171056Z AUTO 27006KT 10SM OVC043 04/M02 A3018 RMK AO2 SLP225
                 T00441017 =
2018-11-17 04:56 METAR KCXY 170956Z AUTO 26007KT 10SM OVC038 04/M02 A3016 RMK AO2 SLP216
                 T00441017 =
2018-11-17 03:56 METAR KCXY 170856Z AUTO 26006KT 10SM OVC034 04/M01 A3013 RMK AO2 SLP207
                 T00391011 53020 =
2018-11-17 02:56 METAR KCXY 170756Z AUTO 27006KT 10SM OVC032 04/M01 A3011 RMK AO2 SLP200
                 T00391011 =
2018-11-17 01:56 METAR KCXY 170656Z AUTO 28009KT 10SM OVC031 04/M01 A3009 RMK AO2 SLP193
                 T00441011 =
2018-11-17 01:32 METAR KCXY 170632Z AUTO 29007KT 10SM OVC030 04/M01 A3008 RMK AO2 T00441011 =
2018-11-17 00:56 METAR KCXY 170556Z AUTO 26006KT 10SM OVC028 04/M01 A3008 RMK AO2 SLP188
                 T00391011 10044 20033 51015 =
2018-11-17 00:53 METAR KCXY 170553Z AUTO 27006KT 10SM OVC028 04/M01 A3007 RMK AO2 =
2018-11-16 23:56 METAR KCXY 170456Z AUTO 27006KT 10SM OVC033 04/M01 A3005 RMK AO2 SLP179
                 T00441011 400610011 =
2018-11-16 22:56 METAR KCXY 170356Z AUTO 22005KT 10SM OVC035 04/M01 A3003 RMK AO2 SLP173
                 T00391011 =
2018-11-16 21:56 METAR KCXY 170256Z AUTO 28008KT 10SM SCT032 OVC046 04/M01 A3002 RMK AO2 SLP168
                 T00391011 53012 =
2018-11-16 21:20 METAR KCXY 170220Z AUTO 28007KT 10SM OVC030 04/M02 A3001 RMK AO2 T00441017 =
2018-11-16 20:56 METAR KCXY 170156Z 24004KT 10SM OVC029 04/M02 A3000 RMK AO2 SLP162 T00391017 =
2018-11-16 20:51 METAR KCXY 170151Z 23003KT 10SM OVC029 04/M02 A2999 RMK AO2 =
2018-11-16 19:56 METAR KCXY 170056Z 29007G15KT 10SM OVC030 04/M02 A2998 RMK AO2 SLP157 T00441017
                 =
2018-11-16 18:56 METAR KCXY 162356Z 28012G16KT 10SM OVC032 04/M02 A2996 RMK AO2 SLP148 T00441022
                 10061 20044 51023 =
2018-11-16 17:56 METAR KCXY 162256Z 28006KT 10SM OVC034 04/M02 A2993 RMK AO2 SLP140 T00441022 =
2018-11-16 16:56 METAR KCXY 162156Z 28008KT 10SM OVC040 04/M02 A2992 RMK AO2 SLP136 T00441022 =
2018-11-16 15:56 METAR KCXY 162056Z 27008KT 10SM SCT075 05/M02 A2989 RMK AO2 SLP125 T00501017
                 53017 =
2018-11-16 14:56 METAR KCXY 161956Z 27011G19KT 10SM FEW034 06/M02 A2986 RMK AO2 SLP115 T00561017
                 =
2018-11-16 13:56 METAR KCXY 161856Z 27011KT 10SM BKN035 06/M02 A2986 RMK AO2 SLP114 T00561022 =
2018-11-16 12:56 METAR KCXY 161756Z 27011G18KT 10SM SCT033 06/M02 A2984 RMK AO2 SLP108 T00561017
                 10061 20022 50001 =
2018-11-16 11:56 METAR KCXY 161656Z 28015G25KT 10SM BKN030 06/M02 A2984 RMK AO2 SLP108 T00561017
                 =
2018-11-16 11:48 METAR KCXY 161648Z 30018G25KT 10SM BKN030 06/M01 A2984 RMK AO2 T00611011 =
2018-11-16 11:30 METAR KCXY 161630Z 27006KT 10SM BKN028 OVC034 04/00 A2984 RMK AO2 T00440000 =
2018-11-16 10:56 METAR KCXY 161556Z 29011KT 10SM BKN032 04/01 A2984 RMK AO2 SLP108 T00440006 =

Support USWX by starting your Amazon purchase here.